sensor_id;sensor_type;location;lat;lon;timestamp;temperature;humidity
52211;DHT22;38179;52.756;6.906;2022-08-21T00:01:20;16.90;99.90
52211;DHT22;38179;52.756;6.906;2022-08-21T00:03:47;16.80;99.90
52211;DHT22;38179;52.756;6.906;2022-08-21T00:06:13;16.70;99.90
52211;DHT22;38179;52.756;6.906;2022-08-21T00:08:39;16.70;99.90
52211;DHT22;38179;52.756;6.906;2022-08-21T00:11:05;16.70;99.90
52211;DHT22;38179;52.756;6.906;2022-08-21T00:13:30;16.70;99.90
52211;DHT22;38179;52.756;6.906;2022-08-21T00:15:57;16.60;99.90
52211;DHT22;38179;52.756;6.906;2022-08-21T00:18:23;16.60;99.90
52211;DHT22;38179;52.756;6.906;2022-08-21T00:20:49;16.50;99.90
52211;DHT22;38179;52.756;6.906;2022-08-21T00:23:15;16.50;99.90
52211;DHT22;38179;52.756;6.906;2022-08-21T00:25:41;16.40;99.90
52211;DHT22;38179;52.756;6.906;2022-08-21T00:28:07;16.40;99.90
52211;DHT22;38179;52.756;6.906;2022-08-21T00:30:33;16.30;99.90
52211;DHT22;38179;52.756;6.906;2022-08-21T00:33:00;16.30;99.90
52211;DHT22;38179;52.756;6.906;2022-08-21T00:35:28;16.30;99.90
52211;DHT22;38179;52.756;6.906;2022-08-21T00:37:54;16.30;99.90
52211;DHT22;38179;52.756;6.906;2022-08-21T00:40:23;16.30;99.90
52211;DHT22;38179;52.756;6.906;2022-08-21T00:42:49;16.20;99.90
52211;DHT22;38179;52.756;6.906;2022-08-21T00:45:15;16.20;99.90
52211;DHT22;38179;52.756;6.906;2022-08-21T00:47:41;16.20;99.90
52211;DHT22;38179;52.756;6.906;2022-08-21T00:50:07;16.30;99.90
52211;DHT22;38179;52.756;6.906;2022-08-21T00:52:33;16.20;99.90
52211;DHT22;38179;52.756;6.906;2022-08-21T00:54:59;16.20;99.90
52211;DHT22;38179;52.756;6.906;2022-08-21T00:57:27;16.30;99.90
52211;DHT22;38179;52.756;6.906;2022-08-21T00:59:55;16.20;99.90
52211;DHT22;38179;52.756;6.906;2022-08-21T01:02:21;16.20;99.90
52211;DHT22;38179;52.756;6.906;2022-08-21T01:04:48;16.10;99.90
52211;DHT22;38179;52.756;6.906;2022-08-21T01:07:13;16.20;99.90
52211;DHT22;38179;52.756;6.906;2022-08-21T01:09:39;16.20;99.90
52211;DHT22;38179;52.756;6.906;2022-08-21T01:12:06;16.20;99.90
52211;DHT22;38179;52.756;6.906;2022-08-21T01:14:32;16.20;99.90
52211;DHT22;38179;52.756;6.906;2022-08-21T01:16:58;16.10;99.90
52211;DHT22;38179;52.756;6.906;2022-08-21T01:19:25;16.10;99.90
52211;DHT22;38179;52.756;6.906;2022-08-21T01:21:51;16.20;99.90
52211;DHT22;38179;52.756;6.906;2022-08-21T01:24:17;16.20;99.90
52211;DHT22;38179;52.756;6.906;2022-08-21T01:26:43;16.10;99.90
52211;DHT22;38179;52.756;6.906;2022-08-21T01:31:38;16.20;99.90
52211;DHT22;38179;52.756;6.906;2022-08-21T01:34:04;16.20;99.90
52211;DHT22;38179;52.756;6.906;2022-08-21T01:36:30;16.20;99.90
52211;DHT22;38179;52.756;6.906;2022-08-21T01:38:56;16.20;99.90
52211;DHT22;38179;52.756;6.906;2022-08-21T01:41:22;16.30;99.90
52211;DHT22;38179;52.756;6.906;2022-08-21T01:43:48;16.20;99.90
52211;DHT22;38179;52.756;6.906;2022-08-21T01:46:14;16.20;99.90
52211;DHT22;38179;52.756;6.906;2022-08-21T01:48:39;16.20;99.90
52211;DHT22;38179;52.756;6.906;2022-08-21T01:51:05;16.10;99.90
52211;DHT22;38179;52.756;6.906;2022-08-21T01:53:32;16.10;99.90
52211;DHT22;38179;52.756;6.906;2022-08-21T01:56:01;16.10;99.90
52211;DHT22;38179;52.756;6.906;2022-08-21T01:58:27;16.10;99.90
52211;DHT22;38179;52.756;6.906;2022-08-21T02:00:52;16.10;99.90
52211;DHT22;38179;52.756;6.906;2022-08-21T02:03:18;16.00;99.90
52211;DHT22;38179;52.756;6.906;2022-08-21T02:05:44;16.00;99.90
52211;DHT22;38179;52.756;6.906;2022-08-21T02:08:10;15.90;99.90
52211;DHT22;38179;52.756;6.906;2022-08-21T02:10:36;15.90;99.90
52211;DHT22;38179;52.756;6.906;2022-08-21T02:13:01;15.80;99.90
52211;DHT22;38179;52.756;6.906;2022-08-21T02:15:28;15.80;99.90
52211;DHT22;38179;52.756;6.906;2022-08-21T02:17:56;15.70;99.90
52211;DHT22;38179;52.756;6.906;2022-08-21T02:20:25;15.70;99.90
52211;DHT22;38179;52.756;6.906;2022-08-21T02:22:51;15.70;99.90
52211;DHT22;38179;52.756;6.906;2022-08-21T02:25:18;15.70;99.90
52211;DHT22;38179;52.756;6.906;2022-08-21T02:27:44;15.70;99.90
52211;DHT22;38179;52.756;6.906;2022-08-21T02:30:14;15.70;99.90
52211;DHT22;38179;52.756;6.906;2022-08-21T02:32:40;15.70;99.90
52211;DHT22;38179;52.756;6.906;2022-08-21T02:35:06;15.50;99.90
52211;DHT22;38179;52.756;6.906;2022-08-21T02:37:32;15.50;99.90
52211;DHT22;38179;52.756;6.906;2022-08-21T02:39:59;15.50;99.90
52211;DHT22;38179;52.756;6.906;2022-08-21T02:42:25;15.50;99.90
52211;DHT22;38179;52.756;6.906;2022-08-21T02:44:51;15.40;99.90
52211;DHT22;38179;52.756;6.906;2022-08-21T02:47:16;15.30;99.90
52211;DHT22;38179;52.756;6.906;2022-08-21T02:49:42;15.30;99.90
52211;DHT22;38179;52.756;6.906;2022-08-21T02:52:08;15.20;99.90
52211;DHT22;38179;52.756;6.906;2022-08-21T02:54:34;15.20;99.90
52211;DHT22;38179;52.756;6.906;2022-08-21T02:56:59;15.20;99.90
52211;DHT22;38179;52.756;6.906;2022-08-21T02:59:25;15.10;99.90
52211;DHT22;38179;52.756;6.906;2022-08-21T03:01:51;15.10;99.90
52211;DHT22;38179;52.756;6.906;2022-08-21T03:04:16;15.10;99.90
52211;DHT22;38179;52.756;6.906;2022-08-21T03:06:42;15.00;99.90
52211;DHT22;38179;52.756;6.906;2022-08-21T03:09:08;14.90;99.90
52211;DHT22;38179;52.756;6.906;2022-08-21T03:11:34;14.90;99.90
52211;DHT22;38179;52.756;6.906;2022-08-21T03:14:01;14.80;99.90
52211;DHT22;38179;52.756;6.906;2022-08-21T03:16:27;14.80;99.90
52211;DHT22;38179;52.756;6.906;2022-08-21T03:18:53;14.70;99.90
52211;DHT22;38179;52.756;6.906;2022-08-21T03:21:19;14.60;99.90
52211;DHT22;38179;52.756;6.906;2022-08-21T03:23:45;14.60;99.90
52211;DHT22;38179;52.756;6.906;2022-08-21T03:26:11;14.60;99.90
52211;DHT22;38179;52.756;6.906;2022-08-21T03:28:36;14.50;99.90
52211;DHT22;38179;52.756;6.906;2022-08-21T03:31:02;14.60;99.90
52211;DHT22;38179;52.756;6.906;2022-08-21T03:33:28;14.50;99.90
52211;DHT22;38179;52.756;6.906;2022-08-21T03:35:59;14.50;99.90
52211;DHT22;38179;52.756;6.906;2022-08-21T03:38:26;14.50;99.90
52211;DHT22;38179;52.756;6.906;2022-08-21T03:40:53;14.40;99.90
52211;DHT22;38179;52.756;6.906;2022-08-21T03:43:18;14.30;99.90
52211;DHT22;38179;52.756;6.906;2022-08-21T03:45:44;14.20;99.90
52211;DHT22;38179;52.756;6.906;2022-08-21T03:48:10;14.10;99.90
52211;DHT22;38179;52.756;6.906;2022-08-21T03:50:37;14.10;99.90
52211;DHT22;38179;52.756;6.906;2022-08-21T03:53:04;14.10;99.90
52211;DHT22;38179;52.756;6.906;2022-08-21T03:55:30;14.20;99.90
52211;DHT22;38179;52.756;6.906;2022-08-21T03:57:56;14.40;99.90
52211;DHT22;38179;52.756;6.906;2022-08-21T04:00:22;14.40;99.90
52211;DHT22;38179;52.756;6.906;2022-08-21T04:02:48;14.50;99.90
52211;DHT22;38179;52.756;6.906;2022-08-21T04:05:15;14.60;99.90
52211;DHT22;38179;52.756;6.906;2022-08-21T04:07:53;14.70;99.90
52211;DHT22;38179;52.756;6.906;2022-08-21T04:10:19;14.70;99.90
52211;DHT22;38179;52.756;6.906;2022-08-21T04:12:44;14.70;99.90
52211;DHT22;38179;52.756;6.906;2022-08-21T04:15:10;14.70;99.90
52211;DHT22;38179;52.756;6.906;2022-08-21T04:17:36;14.70;99.90
52211;DHT22;38179;52.756;6.906;2022-08-21T04:20:01;14.70;99.90
52211;DHT22;38179;52.756;6.906;2022-08-21T04:22:27;14.60;99.90
52211;DHT22;38179;52.756;6.906;2022-08-21T04:24:53;14.60;99.90
52211;DHT22;38179;52.756;6.906;2022-08-21T04:27:19;14.60;99.90
52211;DHT22;38179;52.756;6.906;2022-08-21T04:29:44;14.50;99.90
52211;DHT22;38179;52.756;6.906;2022-08-21T04:32:10;14.50;99.90
52211;DHT22;38179;52.756;6.906;2022-08-21T04:34:36;14.50;99.90
52211;DHT22;38179;52.756;6.906;2022-08-21T04:37:02;14.50;99.90
52211;DHT22;38179;52.756;6.906;2022-08-21T04:39:27;14.50;99.90
52211;DHT22;38179;52.756;6.906;2022-08-21T04:41:53;14.50;99.90
52211;DHT22;38179;52.756;6.906;2022-08-21T04:44:19;14.50;99.90
52211;DHT22;38179;52.756;6.906;2022-08-21T04:46:44;14.50;99.90
52211;DHT22;38179;52.756;6.906;2022-08-21T04:49:10;14.50;99.90
52211;DHT22;38179;52.756;6.906;2022-08-21T04:51:36;14.50;99.90
52211;DHT22;38179;52.756;6.906;2022-08-21T04:54:06;14.50;99.90
52211;DHT22;38179;52.756;6.906;2022-08-21T04:56:51;14.50;99.90
52211;DHT22;38179;52.756;6.906;2022-08-21T04:59:22;14.50;99.90
52211;DHT22;38179;52.756;6.906;2022-08-21T05:01:49;14.50;99.90
52211;DHT22;38179;52.756;6.906;2022-08-21T05:04:16;14.50;99.90
52211;DHT22;38179;52.756;6.906;2022-08-21T05:06:44;14.50;99.90
52211;DHT22;38179;52.756;6.906;2022-08-21T05:09:12;14.50;99.90
52211;DHT22;38179;52.756;6.906;2022-08-21T05:11:38;14.50;99.90
52211;DHT22;38179;52.756;6.906;2022-08-21T05:14:04;14.50;99.90
52211;DHT22;38179;52.756;6.906;2022-08-21T05:16:29;14.40;99.90
52211;DHT22;38179;52.756;6.906;2022-08-21T05:18:55;14.50;99.90
52211;DHT22;38179;52.756;6.906;2022-08-21T05:21:21;14.50;99.90
52211;DHT22;38179;52.756;6.906;2022-08-21T05:23:47;14.50;99.90
52211;DHT22;38179;52.756;6.906;2022-08-21T05:26:12;14.50;99.90
52211;DHT22;38179;52.756;6.906;2022-08-21T05:28:38;14.60;99.90
52211;DHT22;38179;52.756;6.906;2022-08-21T05:31:04;14.60;99.90
52211;DHT22;38179;52.756;6.906;2022-08-21T05:33:30;14.60;99.90
52211;DHT22;38179;52.756;6.906;2022-08-21T05:35:56;14.70;99.90
52211;DHT22;38179;52.756;6.906;2022-08-21T05:38:25;14.70;99.90
52211;DHT22;38179;52.756;6.906;2022-08-21T05:40:52;14.70;99.90
52211;DHT22;38179;52.756;6.906;2022-08-21T05:43:18;14.80;99.90
52211;DHT22;38179;52.756;6.906;2022-08-21T05:45:44;14.80;99.90
52211;DHT22;38179;52.756;6.906;2022-08-21T05:48:20;14.80;99.90
52211;DHT22;38179;52.756;6.906;2022-08-21T05:50:46;14.90;99.90
52211;DHT22;38179;52.756;6.906;2022-08-21T05:53:12;14.90;99.90
52211;DHT22;38179;52.756;6.906;2022-08-21T05:55:39;14.90;99.90
52211;DHT22;38179;52.756;6.906;2022-08-21T05:58:05;14.90;99.90
52211;DHT22;38179;52.756;6.906;2022-08-21T06:00:30;14.90;99.90
52211;DHT22;38179;52.756;6.906;2022-08-21T06:02:57;15.00;99.90
52211;DHT22;38179;52.756;6.906;2022-08-21T06:05:23;15.00;99.90
52211;DHT22;38179;52.756;6.906;2022-08-21T06:07:49;15.10;99.90
52211;DHT22;38179;52.756;6.906;2022-08-21T06:10:14;15.10;99.90
52211;DHT22;38179;52.756;6.906;2022-08-21T06:12:40;15.20;99.90
52211;DHT22;38179;52.756;6.906;2022-08-21T06:15:06;15.20;99.90
52211;DHT22;38179;52.756;6.906;2022-08-21T06:17:32;15.30;99.90
52211;DHT22;38179;52.756;6.906;2022-08-21T06:19:58;15.40;99.90
52211;DHT22;38179;52.756;6.906;2022-08-21T06:22:23;15.40;99.90
52211;DHT22;38179;52.756;6.906;2022-08-21T06:24:49;15.40;99.90
52211;DHT22;38179;52.756;6.906;2022-08-21T06:27:15;15.50;99.90
52211;DHT22;38179;52.756;6.906;2022-08-21T06:29:43;15.60;99.90
52211;DHT22;38179;52.756;6.906;2022-08-21T06:32:10;15.70;99.90
52211;DHT22;38179;52.756;6.906;2022-08-21T06:34:36;15.70;99.90
52211;DHT22;38179;52.756;6.906;2022-08-21T06:37:03;15.80;99.90
52211;DHT22;38179;52.756;6.906;2022-08-21T06:39:29;15.80;99.90
52211;DHT22;38179;52.756;6.906;2022-08-21T06:41:55;15.90;99.90
52211;DHT22;38179;52.756;6.906;2022-08-21T06:44:20;15.90;99.90
52211;DHT22;38179;52.756;6.906;2022-08-21T06:46:46;16.00;99.90
52211;DHT22;38179;52.756;6.906;2022-08-21T06:49:12;16.10;99.90
52211;DHT22;38179;52.756;6.906;2022-08-21T06:51:38;16.10;99.90
52211;DHT22;38179;52.756;6.906;2022-08-21T06:54:04;16.20;99.90
52211;DHT22;38179;52.756;6.906;2022-08-21T06:56:30;16.30;99.90
52211;DHT22;38179;52.756;6.906;2022-08-21T06:58:56;16.30;99.90
52211;DHT22;38179;52.756;6.906;2022-08-21T07:01:22;16.40;99.90
52211;DHT22;38179;52.756;6.906;2022-08-21T07:03:49;16.50;99.90
52211;DHT22;38179;52.756;6.906;2022-08-21T07:06:15;16.60;99.90
52211;DHT22;38179;52.756;6.906;2022-08-21T07:08:41;16.70;99.90
52211;DHT22;38179;52.756;6.906;2022-08-21T07:11:09;16.80;99.90
52211;DHT22;38179;52.756;6.906;2022-08-21T07:13:36;16.90;99.90
52211;DHT22;38179;52.756;6.906;2022-08-21T07:16:02;17.00;99.90
52211;DHT22;38179;52.756;6.906;2022-08-21T07:18:28;17.00;99.90
52211;DHT22;38179;52.756;6.906;2022-08-21T07:20:54;17.10;99.90
52211;DHT22;38179;52.756;6.906;2022-08-21T07:23:27;17.10;99.90
52211;DHT22;38179;52.756;6.906;2022-08-21T07:25:54;17.30;99.90
52211;DHT22;38179;52.756;6.906;2022-08-21T07:28:19;17.40;99.90
52211;DHT22;38179;52.756;6.906;2022-08-21T07:30:46;17.40;99.90
52211;DHT22;38179;52.756;6.906;2022-08-21T07:33:16;17.50;99.90
52211;DHT22;38179;52.756;6.906;2022-08-21T07:35:41;17.60;99.90
52211;DHT22;38179;52.756;6.906;2022-08-21T07:38:07;17.70;99.90
52211;DHT22;38179;52.756;6.906;2022-08-21T07:40:33;17.70;99.90
52211;DHT22;38179;52.756;6.906;2022-08-21T07:42:59;17.80;99.90
52211;DHT22;38179;52.756;6.906;2022-08-21T07:45:24;17.90;99.90
52211;DHT22;38179;52.756;6.906;2022-08-21T07:47:51;17.90;99.90
52211;DHT22;38179;52.756;6.906;2022-08-21T07:50:17;18.00;99.90
52211;DHT22;38179;52.756;6.906;2022-08-21T07:52:43;18.00;99.90
52211;DHT22;38179;52.756;6.906;2022-08-21T07:55:11;18.10;99.90
52211;DHT22;38179;52.756;6.906;2022-08-21T07:57:37;18.20;99.90
52211;DHT22;38179;52.756;6.906;2022-08-21T08:00:08;18.20;99.90
52211;DHT22;38179;52.756;6.906;2022-08-21T08:02:35;18.30;99.90
52211;DHT22;38179;52.756;6.906;2022-08-21T08:05:02;18.30;99.90
52211;DHT22;38179;52.756;6.906;2022-08-21T08:07:28;18.40;99.90
52211;DHT22;38179;52.756;6.906;2022-08-21T08:09:54;18.40;99.90
52211;DHT22;38179;52.756;6.906;2022-08-21T08:12:20;18.40;99.90
52211;DHT22;38179;52.756;6.906;2022-08-21T08:14:46;18.50;99.90
52211;DHT22;38179;52.756;6.906;2022-08-21T08:17:12;18.50;99.90
52211;DHT22;38179;52.756;6.906;2022-08-21T08:19:39;18.60;99.90
52211;DHT22;38179;52.756;6.906;2022-08-21T08:22:14;18.60;99.90
52211;DHT22;38179;52.756;6.906;2022-08-21T08:24:40;18.70;99.90
52211;DHT22;38179;52.756;6.906;2022-08-21T08:27:06;18.80;99.90
52211;DHT22;38179;52.756;6.906;2022-08-21T08:29:32;18.80;99.90
52211;DHT22;38179;52.756;6.906;2022-08-21T08:31:58;18.90;99.90
52211;DHT22;38179;52.756;6.906;2022-08-21T08:34:24;18.90;99.90
52211;DHT22;38179;52.756;6.906;2022-08-21T08:36:50;18.90;99.90
52211;DHT22;38179;52.756;6.906;2022-08-21T08:39:15;19.00;99.90
52211;DHT22;38179;52.756;6.906;2022-08-21T08:41:42;18.90;99.90
52211;DHT22;38179;52.756;6.906;2022-08-21T08:44:08;19.00;99.90
52211;DHT22;38179;52.756;6.906;2022-08-21T08:49:02;19.10;99.90
52211;DHT22;38179;52.756;6.906;2022-08-21T08:51:34;19.10;99.90
52211;DHT22;38179;52.756;6.906;2022-08-21T08:54:06;19.10;99.90
52211;DHT22;38179;52.756;6.906;2022-08-21T08:56:33;19.10;99.90
52211;DHT22;38179;52.756;6.906;2022-08-21T08:59:01;19.20;99.90
52211;DHT22;38179;52.756;6.906;2022-08-21T09:01:29;19.20;99.90
52211;DHT22;38179;52.756;6.906;2022-08-21T09:03:55;19.30;99.90
52211;DHT22;38179;52.756;6.906;2022-08-21T09:14:12;19.30;99.90
52211;DHT22;38179;52.756;6.906;2022-08-21T09:16:51;19.40;99.90
52211;DHT22;38179;52.756;6.906;2022-08-21T09:26:54;19.60;99.90
52211;DHT22;38179;52.756;6.906;2022-08-21T09:29:23;19.70;99.90
52211;DHT22;38179;52.756;6.906;2022-08-21T09:31:50;19.70;99.90
52211;DHT22;38179;52.756;6.906;2022-08-21T09:34:24;19.70;99.90
52211;DHT22;38179;52.756;6.906;2022-08-21T09:36:50;19.80;99.90
52211;DHT22;38179;52.756;6.906;2022-08-21T09:39:26;19.70;99.90
52211;DHT22;38179;52.756;6.906;2022-08-21T09:41:56;19.70;99.90
52211;DHT22;38179;52.756;6.906;2022-08-21T09:44:29;19.80;99.90
52211;DHT22;38179;52.756;6.906;2022-08-21T09:46:55;19.90;99.90
52211;DHT22;38179;52.756;6.906;2022-08-21T09:49:28;19.90;99.90
52211;DHT22;38179;52.756;6.906;2022-08-21T09:51:54;19.90;99.90
52211;DHT22;38179;52.756;6.906;2022-08-21T09:54:20;20.00;99.90
52211;DHT22;38179;52.756;6.906;2022-08-21T09:59:37;20.10;99.90
52211;DHT22;38179;52.756;6.906;2022-08-21T10:02:16;20.20;99.90
52211;DHT22;38179;52.756;6.906;2022-08-21T10:04:49;20.10;99.90
52211;DHT22;38179;52.756;6.906;2022-08-21T10:07:15;20.10;99.90
52211;DHT22;38179;52.756;6.906;2022-08-21T10:09:41;20.10;99.90
52211;DHT22;38179;52.756;6.906;2022-08-21T10:12:16;20.20;99.90
52211;DHT22;38179;52.756;6.906;2022-08-21T10:17:47;20.30;99.90
52211;DHT22;38179;52.756;6.906;2022-08-21T10:25:42;20.30;99.90
52211;DHT22;38179;52.756;6.906;2022-08-21T10:28:12;20.30;99.90
52211;DHT22;38179;52.756;6.906;2022-08-21T10:30:56;20.30;99.90
52211;DHT22;38179;52.756;6.906;2022-08-21T10:33:27;20.30;99.90
52211;DHT22;38179;52.756;6.906;2022-08-21T10:41:03;20.50;99.90
52211;DHT22;38179;52.756;6.906;2022-08-21T10:43:42;20.50;99.90
52211;DHT22;38179;52.756;6.906;2022-08-21T10:46:12;20.60;99.90
52211;DHT22;38179;52.756;6.906;2022-08-21T10:48:58;20.50;99.90
52211;DHT22;38179;52.756;6.906;2022-08-21T10:56:26;20.60;99.90
52211;DHT22;38179;52.756;6.906;2022-08-21T11:01:33;20.70;99.90
52211;DHT22;38179;52.756;6.906;2022-08-21T11:04:10;20.60;99.90
52211;DHT22;38179;52.756;6.906;2022-08-21T11:06:37;20.60;99.90
52211;DHT22;38179;52.756;6.906;2022-08-21T11:09:07;20.80;99.90
52211;DHT22;38179;52.756;6.906;2022-08-21T11:11:39;20.80;99.90
52211;DHT22;38179;52.756;6.906;2022-08-21T11:14:17;20.80;99.90
52211;DHT22;38179;52.756;6.906;2022-08-21T11:16:57;20.80;99.90
52211;DHT22;38179;52.756;6.906;2022-08-21T11:19:27;20.80;99.90
52211;DHT22;38179;52.756;6.906;2022-08-21T11:21:56;20.80;99.90
52211;DHT22;38179;52.756;6.906;2022-08-21T11:24:29;20.80;99.90
52211;DHT22;38179;52.756;6.906;2022-08-21T11:27:03;20.90;99.90
52211;DHT22;38179;52.756;6.906;2022-08-21T11:29:32;21.10;99.90
52211;DHT22;38179;52.756;6.906;2022-08-21T11:34:57;21.10;99.90
52211;DHT22;38179;52.756;6.906;2022-08-21T11:42:33;21.30;99.90
52211;DHT22;38179;52.756;6.906;2022-08-21T11:45:12;21.30;99.90
52211;DHT22;38179;52.756;6.906;2022-08-21T11:50:15;21.40;99.90
52211;DHT22;38179;52.756;6.906;2022-08-21T11:52:43;21.40;99.90
52211;DHT22;38179;52.756;6.906;2022-08-21T11:55:22;21.50;99.90
52211;DHT22;38179;52.756;6.906;2022-08-21T11:58:10;21.60;99.90
52211;DHT22;38179;52.756;6.906;2022-08-21T12:01:11;21.60;99.90
52211;DHT22;38179;52.756;6.906;2022-08-21T12:03:33;21.60;99.90
52211;DHT22;38179;52.756;6.906;2022-08-21T12:11:04;21.90;99.90
52211;DHT22;38179;52.756;6.906;2022-08-21T12:13:32;21.90;99.90
52211;DHT22;38179;52.756;6.906;2022-08-21T12:16:08;21.90;99.90
52211;DHT22;38179;52.756;6.906;2022-08-21T12:18:34;21.90;99.90
52211;DHT22;38179;52.756;6.906;2022-08-21T12:21:02;21.90;99.90
52211;DHT22;38179;52.756;6.906;2022-08-21T12:23:32;21.80;99.90
52211;DHT22;38179;52.756;6.906;2022-08-21T12:28:25;21.90;99.90
52211;DHT22;38179;52.756;6.906;2022-08-21T12:30:51;21.90;99.90
52211;DHT22;38179;52.756;6.906;2022-08-21T12:35:49;22.10;99.90
52211;DHT22;38179;52.756;6.906;2022-08-21T12:38:50;22.20;99.90
52211;DHT22;38179;52.756;6.906;2022-08-21T12:41:14;22.30;99.90
52211;DHT22;38179;52.756;6.906;2022-08-21T12:43:42;22.30;99.90
52211;DHT22;38179;52.756;6.906;2022-08-21T12:46:16;22.30;99.90
52211;DHT22;38179;52.756;6.906;2022-08-21T12:48:52;22.30;99.90
52211;DHT22;38179;52.756;6.906;2022-08-21T12:51:24;22.20;99.90
52211;DHT22;38179;52.756;6.906;2022-08-21T12:53:52;22.20;99.90
52211;DHT22;38179;52.756;6.906;2022-08-21T12:56:19;22.30;99.90
52211;DHT22;38179;52.756;6.906;2022-08-21T12:58:47;22.30;99.90
52211;DHT22;38179;52.756;6.906;2022-08-21T13:01:31;22.30;99.90
52211;DHT22;38179;52.756;6.906;2022-08-21T13:04:01;22.30;99.90
52211;DHT22;38179;52.756;6.906;2022-08-21T13:06:28;22.30;99.90
52211;DHT22;38179;52.756;6.906;2022-08-21T13:08:58;22.40;99.90
52211;DHT22;38179;52.756;6.906;2022-08-21T13:11:29;22.60;99.90
52211;DHT22;38179;52.756;6.906;2022-08-21T13:13:54;22.70;99.90
52211;DHT22;38179;52.756;6.906;2022-08-21T13:16:22;22.70;99.90
52211;DHT22;38179;52.756;6.906;2022-08-21T13:21:21;22.70;99.90
52211;DHT22;38179;52.756;6.906;2022-08-21T13:23:47;22.70;99.90
52211;DHT22;38179;52.756;6.906;2022-08-21T13:26:19;22.80;99.90
52211;DHT22;38179;52.756;6.906;2022-08-21T13:28:46;22.80;99.90
52211;DHT22;38179;52.756;6.906;2022-08-21T13:31:15;22.90;99.90
52211;DHT22;38179;52.756;6.906;2022-08-21T13:33:41;23.00;99.90
52211;DHT22;38179;52.756;6.906;2022-08-21T13:36:11;23.00;99.90
52211;DHT22;38179;52.756;6.906;2022-08-21T13:38:39;23.00;99.90
52211;DHT22;38179;52.756;6.906;2022-08-21T13:43:44;23.10;99.90
52211;DHT22;38179;52.756;6.906;2022-08-21T13:46:10;23.10;99.90
52211;DHT22;38179;52.756;6.906;2022-08-21T13:48:38;23.10;99.90
52211;DHT22;38179;52.756;6.906;2022-08-21T13:51:04;23.00;99.90
52211;DHT22;38179;52.756;6.906;2022-08-21T13:53:32;23.00;99.90
52211;DHT22;38179;52.756;6.906;2022-08-21T13:55:59;23.10;99.90
52211;DHT22;38179;52.756;6.906;2022-08-21T13:58:46;23.20;99.90
52211;DHT22;38179;52.756;6.906;2022-08-21T14:01:18;23.20;99.90
52211;DHT22;38179;52.756;6.906;2022-08-21T14:03:45;23.40;99.90
52211;DHT22;38179;52.756;6.906;2022-08-21T14:06:12;23.50;99.90
52211;DHT22;38179;52.756;6.906;2022-08-21T14:08:39;23.50;99.90
52211;DHT22;38179;52.756;6.906;2022-08-21T14:11:10;23.50;99.90
52211;DHT22;38179;52.756;6.906;2022-08-21T14:13:38;23.50;99.90
52211;DHT22;38179;52.756;6.906;2022-08-21T14:16:25;23.50;99.90
52211;DHT22;38179;52.756;6.906;2022-08-21T14:21:44;23.70;99.90
52211;DHT22;38179;52.756;6.906;2022-08-21T14:24:13;23.90;99.90
52211;DHT22;38179;52.756;6.906;2022-08-21T14:26:52;23.90;99.90
52211;DHT22;38179;52.756;6.906;2022-08-21T14:29:19;23.90;99.90
52211;DHT22;38179;52.756;6.906;2022-08-21T14:31:52;23.80;99.90
52211;DHT22;38179;52.756;6.906;2022-08-21T14:34:18;23.80;99.90
52211;DHT22;38179;52.756;6.906;2022-08-21T14:36:44;23.80;99.90
52211;DHT22;38179;52.756;6.906;2022-08-21T14:39:09;23.80;99.90
52211;DHT22;38179;52.756;6.906;2022-08-21T14:41:35;23.90;99.90
52211;DHT22;38179;52.756;6.906;2022-08-21T14:44:02;24.00;99.90
52211;DHT22;38179;52.756;6.906;2022-08-21T14:46:29;24.00;99.90
52211;DHT22;38179;52.756;6.906;2022-08-21T14:48:55;23.90;99.90
52211;DHT22;38179;52.756;6.906;2022-08-21T14:51:21;23.70;99.90
52211;DHT22;38179;52.756;6.906;2022-08-21T14:53:47;23.50;99.90
52211;DHT22;38179;52.756;6.906;2022-08-21T14:56:12;23.30;99.90
52211;DHT22;38179;52.756;6.906;2022-08-21T14:58:42;23.30;99.90
52211;DHT22;38179;52.756;6.906;2022-08-21T15:01:10;23.30;99.90
52211;DHT22;38179;52.756;6.906;2022-08-21T15:03:36;23.50;99.90
52211;DHT22;38179;52.756;6.906;2022-08-21T15:06:03;23.50;99.90
52211;DHT22;38179;52.756;6.906;2022-08-21T15:08:28;23.50;99.90
52211;DHT22;38179;52.756;6.906;2022-08-21T15:10:54;23.50;99.90
52211;DHT22;38179;52.756;6.906;2022-08-21T15:13:20;23.50;99.90
52211;DHT22;38179;52.756;6.906;2022-08-21T15:15:47;23.60;99.90
52211;DHT22;38179;52.756;6.906;2022-08-21T15:18:13;23.50;99.90
52211;DHT22;38179;52.756;6.906;2022-08-21T15:20:39;23.60;99.90
52211;DHT22;38179;52.756;6.906;2022-08-21T15:23:06;23.50;99.90
52211;DHT22;38179;52.756;6.906;2022-08-21T15:25:32;23.50;99.90
52211;DHT22;38179;52.756;6.906;2022-08-21T15:27:58;23.50;99.90
52211;DHT22;38179;52.756;6.906;2022-08-21T15:30:25;23.40;99.90
52211;DHT22;38179;52.756;6.906;2022-08-21T15:32:50;23.50;99.90
52211;DHT22;38179;52.756;6.906;2022-08-21T15:35:17;23.50;99.90
52211;DHT22;38179;52.756;6.906;2022-08-21T15:37:43;23.40;99.90
52211;DHT22;38179;52.756;6.906;2022-08-21T15:40:09;23.40;99.90
52211;DHT22;38179;52.756;6.906;2022-08-21T15:42:35;23.30;99.90
52211;DHT22;38179;52.756;6.906;2022-08-21T15:45:03;23.20;99.90
52211;DHT22;38179;52.756;6.906;2022-08-21T15:47:30;23.20;99.90
52211;DHT22;38179;52.756;6.906;2022-08-21T15:49:57;23.10;99.90
52211;DHT22;38179;52.756;6.906;2022-08-21T15:52:22;23.10;99.90
52211;DHT22;38179;52.756;6.906;2022-08-21T15:54:48;23.00;99.90
52211;DHT22;38179;52.756;6.906;2022-08-21T15:57:15;23.00;99.90
52211;DHT22;38179;52.756;6.906;2022-08-21T15:59:43;23.00;99.90
52211;DHT22;38179;52.756;6.906;2022-08-21T16:02:14;23.10;99.90
52211;DHT22;38179;52.756;6.906;2022-08-21T16:04:40;23.20;99.90
52211;DHT22;38179;52.756;6.906;2022-08-21T16:07:06;23.20;99.90
52211;DHT22;38179;52.756;6.906;2022-08-21T16:09:32;23.30;99.90
52211;DHT22;38179;52.756;6.906;2022-08-21T16:12:00;23.30;99.90
52211;DHT22;38179;52.756;6.906;2022-08-21T16:14:27;23.30;99.90
52211;DHT22;38179;52.756;6.906;2022-08-21T16:16:53;23.30;99.90
52211;DHT22;38179;52.756;6.906;2022-08-21T16:19:19;23.10;99.90
52211;DHT22;38179;52.756;6.906;2022-08-21T16:21:46;23.10;99.90
52211;DHT22;38179;52.756;6.906;2022-08-21T16:24:12;23.10;99.90
52211;DHT22;38179;52.756;6.906;2022-08-21T16:26:37;23.20;99.90
52211;DHT22;38179;52.756;6.906;2022-08-21T16:29:03;23.20;99.90
52211;DHT22;38179;52.756;6.906;2022-08-21T16:31:30;23.20;99.90
52211;DHT22;38179;52.756;6.906;2022-08-21T16:33:56;23.20;99.90
52211;DHT22;38179;52.756;6.906;2022-08-21T16:36:22;23.20;99.90
52211;DHT22;38179;52.756;6.906;2022-08-21T16:38:50;23.10;99.90
52211;DHT22;38179;52.756;6.906;2022-08-21T16:41:19;23.00;99.90
52211;DHT22;38179;52.756;6.906;2022-08-21T16:43:45;22.90;99.90
52211;DHT22;38179;52.756;6.906;2022-08-21T16:46:12;22.80;99.90